createdAt,value
2022-11-18T00:02:22.269Z,29.1
2022-11-18T00:08:00.294Z,29.1
2022-11-18T00:13:21.781Z,29.1
2022-11-18T00:19:00.144Z,29
2022-11-18T00:24:42.190Z,29
2022-11-18T00:30:19.183Z,29
2022-11-18T00:35:55.499Z,29
2022-11-18T00:41:18.723Z,29
2022-11-18T00:46:56.044Z,28.9
2022-11-18T00:52:18.472Z,28.9
2022-11-18T00:57:56.268Z,28.9
2022-11-18T01:03:19.651Z,28.9
2022-11-18T01:08:41.380Z,28.9
2022-11-18T01:14:04.325Z,28.8
2022-11-18T01:19:42.166Z,28.8
2022-11-18T01:25:04.189Z,28.8
2022-11-18T01:30:30.685Z,28.8
2022-11-18T01:36:24.700Z,28.8
2022-11-18T01:42:02.484Z,28.8
2022-11-18T01:47:25.222Z,28.7
2022-11-18T01:58:14.206Z,28.6
2022-11-18T02:03:38.655Z,28.7
2022-11-18T02:09:16.787Z,29
2022-11-18T02:14:55.199Z,29.4
2022-11-18T02:20:33.346Z,29.8
2022-11-18T02:26:10.365Z,30.2
2022-11-18T02:31:32.465Z,30.5
2022-11-18T02:36:53.828Z,30.9
2022-11-18T02:42:16.049Z,31.4
2022-11-18T02:47:53.833Z,31.8
2022-11-18T02:53:31.909Z,32.2
2022-11-18T02:59:09.402Z,32.7
2022-11-18T03:04:47.002Z,33.2
2022-11-18T03:10:09.831Z,33.6
2022-11-18T03:15:16.334Z,34.1
2022-11-18T03:20:54.105Z,34.6
2022-11-18T03:26:00.428Z,35.1
2022-11-18T03:36:48.835Z,35.9
2022-11-18T03:42:32.332Z,36.1
2022-11-18T03:48:15.879Z,36.3
2022-11-18T03:53:38.463Z,36.3
2022-11-18T03:59:21.477Z,36.4
2022-11-18T04:04:58.553Z,36.4
2022-11-18T04:10:36.306Z,36.5
2022-11-18T04:16:14.747Z,36.5
2022-11-18T04:21:52.579Z,36.5
2022-11-18T04:27:30.392Z,36.5
2022-11-18T04:32:52.905Z,36.6
2022-11-18T04:38:37.113Z,36.6
2022-11-18T04:43:59.291Z,36.6
2022-11-18T04:49:42.520Z,36.5
2022-11-18T04:55:20.325Z,36.6
2022-11-18T05:01:03.033Z,36.5
2022-11-18T05:06:25.349Z,36.4
2022-11-18T05:11:48.350Z,36.4
2022-11-18T05:17:11.833Z,36.4
2022-11-18T05:22:38.268Z,36.4
2022-11-18T05:28:15.718Z,36.4
2022-11-18T05:33:38.505Z,36.3
2022-11-18T05:39:19.363Z,36.3
2022-11-18T05:44:41.309Z,36.2
2022-11-18T05:50:21.691Z,36.2
2022-11-18T05:56:00.136Z,36.2
2022-11-18T06:01:38.380Z,36.3
2022-11-18T06:07:17.193Z,36.4
2022-11-18T06:12:55.982Z,36.3
2022-11-18T06:18:36.858Z,36.3
2022-11-18T06:24:14.773Z,36.2
2022-11-18T06:29:58.939Z,36.2
2022-11-18T06:35:36.526Z,36.1
2022-11-18T06:41:21.245Z,36.1
2022-11-18T06:46:45.169Z,35.9
2022-11-18T06:52:08.075Z,35.8
2022-11-18T06:57:51.060Z,35.6
2022-11-18T07:03:29.816Z,35.6
2022-11-18T07:09:06.817Z,35.5
2022-11-18T07:14:49.730Z,35.4
2022-11-18T07:20:27.181Z,35.4
2022-11-18T07:26:04.609Z,35.3
2022-11-18T07:31:43.129Z,35.3
2022-11-18T07:37:25.336Z,35.2
2022-11-18T07:43:03.418Z,35.1
2022-11-18T07:48:47.671Z,35.1
2022-11-18T07:54:27.754Z,35.1
2022-11-18T08:00:05.819Z,35
2022-11-18T08:05:50.909Z,34.9
2022-11-18T08:11:32.773Z,34.9
2022-11-18T08:17:10.469Z,34.8
2022-11-18T08:22:48.164Z,34.8
2022-11-18T08:28:31.039Z,34.7
2022-11-18T08:34:12.721Z,34.6
2022-11-18T08:39:39.612Z,34.6
2022-11-18T08:45:04.809Z,34.6
2022-11-18T08:50:42.990Z,34.5
2022-11-18T08:56:21.114Z,34.4
2022-11-18T09:01:58.751Z,34.4
2022-11-18T09:07:36.015Z,34.4
2022-11-18T09:20:54.775Z,34.1
2022-11-18T09:26:33.204Z,34.1
2022-11-18T09:32:17.397Z,34
2022-11-18T09:37:55.618Z,33.9
2022-11-18T09:43:39.183Z,33.9
2022-11-18T09:49:22.265Z,33.8
2022-11-18T09:55:41.977Z,33.8
2022-11-18T10:01:20.546Z,33.7
2022-11-18T10:06:58.288Z,33.6
2022-11-18T10:12:41.510Z,51.3
2022-11-18T10:18:38.221Z,48.5
2022-11-18T10:24:33.116Z,52.5
2022-11-18T10:29:55.694Z,54
2022-11-18T10:35:18.066Z,55.1
2022-11-18T10:41:25.046Z,55.5
2022-11-18T10:46:48.243Z,56.3
2022-11-18T10:52:33.492Z,56.6
2022-11-18T10:58:16.220Z,57.2
2022-11-18T11:03:57.409Z,56.1
2022-11-18T11:09:44.841Z,55.5
2022-11-18T11:15:24.232Z,55.7
2022-11-18T11:21:03.192Z,55.1
2022-11-18T11:28:33.638Z,54.5
2022-11-18T11:34:11.749Z,53.7
2022-11-18T11:39:54.642Z,53.1
2022-11-18T11:45:32.454Z,52.3
2022-11-18T11:51:01.828Z,50.8
2022-11-18T11:56:26.017Z,47.9
2022-11-18T12:02:04.721Z,45.6
2022-11-18T12:07:49.377Z,43.8
2022-11-18T12:13:28.021Z,42.4
2022-11-18T12:19:10.838Z,41.1
2022-11-18T12:24:49.581Z,40.2
2022-11-18T12:30:28.246Z,39.4
2022-11-18T12:36:05.748Z,38.7
2022-11-18T12:41:43.654Z,38.2
2022-11-18T12:47:21.827Z,37.9
2022-11-18T12:52:45.193Z,37.6
2022-11-18T12:58:11.218Z,37.2
2022-11-18T13:03:50.118Z,36.9
2022-11-18T13:09:34.449Z,36.6
2022-11-18T13:15:13.178Z,36.3
2022-11-18T13:20:52.094Z,35.9
2022-11-18T13:25:58.547Z,35.7
2022-11-18T13:31:35.833Z,35.4
2022-11-18T13:37:13.990Z,35.1
2022-11-18T13:42:43.593Z,34.8
2022-11-18T13:48:25.363Z,34.6
2022-11-18T13:54:04.534Z,34.3
2022-11-18T13:59:43.378Z,34.1
2022-11-18T14:05:05.930Z,33.9
2022-11-18T14:10:29.258Z,33.7
2022-11-18T14:16:08.309Z,33.6
2022-11-18T14:21:46.708Z,33.4
2022-11-18T14:27:26.738Z,33.1
2022-11-18T14:32:48.947Z,32.9
2022-11-18T14:39:26.248Z,32.6
2022-11-18T14:44:37.917Z,32.3
2022-11-18T14:50:16.450Z,32.3
2022-11-18T14:56:02.984Z,32.3
2022-11-18T15:01:46.966Z,32.1
2022-11-18T15:06:55.333Z,32
2022-11-18T15:12:33.212Z,31.9
2022-11-18T15:17:40.876Z,31.9
2022-11-18T15:23:18.531Z,31.8
2022-11-18T15:28:56.912Z,31.8
2022-11-18T15:34:40.303Z,31.7
2022-11-18T15:40:18.163Z,31.8
2022-11-18T15:45:38.073Z,31.8
2022-11-18T15:51:16.506Z,31.8
2022-11-18T15:56:46.300Z,31.8
2022-11-18T16:02:29.402Z,31.7
2022-11-18T16:07:36.689Z,31.6
2022-11-18T16:18:40.883Z,31.5
2022-11-18T16:24:19.326Z,31.5
2022-11-18T16:30:03.365Z,31.4
2022-11-18T16:35:49.411Z,31.4
2022-11-18T16:41:27.356Z,31.4
2022-11-18T16:47:17.807Z,31.3
2022-11-18T16:52:40.838Z,31.3
2022-11-18T16:58:25.960Z,31.2
2022-11-18T17:04:30.048Z,31.1
2022-11-18T17:10:09.181Z,31.1
2022-11-18T17:15:20.413Z,31.1
2022-11-18T17:20:47.841Z,31
2022-11-18T17:26:28.088Z,31
2022-11-18T17:31:40.504Z,30.9
2022-11-18T17:37:06.676Z,30.9
2022-11-18T17:42:29.924Z,30.9
2022-11-18T17:48:00.096Z,30.8
2022-11-18T17:53:41.289Z,30.8
2022-11-18T17:59:27.429Z,30.8
2022-11-18T18:05:08.317Z,30.7
2022-11-18T18:10:36.926Z,30.6
2022-11-18T18:16:05.974Z,30.4
2022-11-18T18:21:45.833Z,30.2
2022-11-18T18:27:24.671Z,30
2022-11-18T18:33:08.813Z,29.8
2022-11-18T18:38:16.892Z,29.7
2022-11-18T18:43:24.173Z,29.5
2022-11-18T18:49:07.218Z,29.4
2022-11-18T18:54:46.696Z,29.3
2022-11-18T19:00:16.527Z,29.2
2022-11-18T19:07:15.435Z,29.1
2022-11-18T19:12:40.199Z,29
2022-11-18T19:18:05.031Z,28.9
2022-11-18T19:23:29.337Z,28.9
2022-11-18T19:29:42.172Z,28.9
2022-11-18T19:35:06.836Z,28.8
2022-11-18T19:40:46.926Z,28.8
2022-11-18T19:46:30.496Z,28.7
2022-11-18T19:52:11.574Z,28.7
2022-11-18T19:57:58.188Z,28.6
2022-11-18T20:03:38.157Z,28.5
2022-11-18T20:09:18.576Z,28.1
2022-11-18T20:15:03.134Z,27.8
2022-11-18T20:20:57.398Z,28.3
2022-11-18T20:26:37.093Z,29.7
2022-11-18T20:32:06.245Z,30.9
2022-11-18T20:37:46.484Z,31.9
2022-11-18T20:43:10.488Z,32.7
2022-11-18T20:48:36.120Z,33.3
2022-11-18T20:53:45.232Z,33.8
2022-11-18T20:58:37.846Z,34.3
2022-11-18T21:04:16.900Z,34.7
2022-11-18T21:09:56.762Z,35.3
2022-11-18T21:15:37.022Z,35.8
2022-11-18T21:21:16.747Z,36.1
2022-11-18T21:27:02.353Z,36.3
2022-11-18T21:32:45.430Z,36.4
2022-11-18T21:38:28.238Z,36.6
2022-11-18T21:44:39.429Z,36.7
2022-11-18T21:50:23.354Z,36.8
2022-11-18T21:56:01.713Z,36.8
2022-11-18T22:01:28.754Z,36.9
2022-11-18T22:06:50.725Z,36.9
2022-11-18T22:12:13.219Z,36.9
2022-11-18T22:17:51.557Z,36.9
2022-11-18T22:23:35.424Z,36.9
2022-11-18T22:29:15.589Z,36.9
2022-11-18T22:34:54.229Z,36.9
2022-11-18T22:40:32.316Z,36.9
2022-11-18T22:46:16.023Z,36.9
2022-11-18T22:51:54.084Z,36.9
2022-11-18T22:59:42.428Z,36.9
2022-11-18T23:06:45.945Z,36.9
2022-11-18T23:12:26.442Z,36.8
2022-11-18T23:17:55.171Z,36.8
2022-11-18T23:23:20.822Z,36.7
2022-11-18T23:29:00.685Z,36.7
2022-11-18T23:34:40.862Z,36.6
2022-11-18T23:40:20.440Z,36.6
2022-11-18T23:45:28.374Z,36.6
2022-11-18T23:51:12.088Z,36.5
2022-11-18T23:56:54.651Z,36.5
